Edwards, CO (81632)

9:27 PM MDT on August 28, 2016 (GMT -0600)
Edwards CO | | Change Station

Elev 7152 ft 39.65 °N, 106.62 °W | Updated 8 seconds ago

Scattered Clouds
Scattered Clouds
48.4 °F
Feels Like 48 °F
N
0.7
Wind Variable Wind from WSW
Gusts 2.2 mph

Today
High -- | Low -- °F
--% Chance of Precip.
Yesterday
High -- | Low -- °F
Precip. -- in
Pressure 30.41 in
Visibility 10.0 miles
Clouds Scattered Clouds 11000 ft
Windchill 48 °F
Dew Point 46 °F
Humidity 93%
Rainfall 0.13 in
Snow Depth Not available.
6:31 AM 7:42 PM
Waning Crescent, 11% visible
METAR KEGE 290315Z 02004KT 10SM SCT110 14/08 A3041 RMK AO1
Pressure 30.41 in
Visibility 10.0 miles
Clouds Scattered Clouds 11000 ft
Windchill 48 °F
Dew Point 46 °F
Humidity 93%
Rainfall 0.13 in
Snow Depth Not available.
6:31 AM 7:42 PM
Waning Crescent, 11% visible
METAR KEGE 290315Z 02004KT 10SM SCT110 14/08 A3041 RMK AO1

10-Day Weather Forecast

Almanac

Astronomy

Aug. 28, 2016 Rise Set
Actual Time
Civil Twilight
Nautical Twilight
Astronomical Twilight
Moon
Length of Visible Light
Length of Day
Tomorrow will be .
, % of the Moon is Illuminated

Today's Extremes

State Highs State Lows

Community

WunderPhotos

Upload Photos

1,935,782 photos uploaded!

WunderBlog® & News

Nearby

Air Quality

  Air Quality AQ Index Pollutant
Not available.

Snow Depth

Station Depth Elevation

Earthquake Activity

City Distance Mag. Time & Date
Minimum magnitude displayed is 2.5.

Coastal Water Temperatures

Place Temperature

Stations

Nearby Weather Stations

Station Location Temp. Windchill Dew Point Humidity Wind Precip. Elev Updated Type
                   

Watches & Warnings

There are currently no watches in effect.